CDT,Max TemperatureF,Mean TemperatureF,Min TemperatureF,Max Dew PointF,MeanDew PointF,Min DewpointF,Max Humidity, Mean Humidity, Min Humidity, Max Sea Level PressureIn, Mean Sea Level PressureIn, Min Sea Level PressureIn, Max VisibilityMiles, Mean VisibilityMiles, Min VisibilityMiles, Max Wind SpeedMPH, Mean Wind SpeedMPH, Max Gust SpeedMPH,PrecipitationIn, CloudCover, Events, WindDirDegrees
2012-9-1,94,84,73,74,72,69,94,70,46,30.21,30.14,30.06,10,8,0,10,2,14,0.00,3,Fog,204
2012-9-2,92,83,73,76,73,71,93,73,52,30.09,30.02,29.94,10,10,3,13,5,17,0.00,3,,221
2012-9-3,88,80,72,76,72,70,94,79,63,30.02,29.96,29.91,10,8,0,25,6,31,1.61,6,Fog-Rain-Thunderstorm,214
2012-9-4,79,76,73,73,71,69,93,86,79,29.97,29.92,29.88,10,8,1,13,4,17,1.43,8,Rain-Thunderstorm,190
2012-9-5,88,81,74,74,72,70,94,78,61,29.93,29.89,29.85,10,10,9,10,5,13,0.00,7,,85
2012-9-6,91,82,72,74,72,70,94,75,56,30.00,29.94,29.89,10,10,7,8,2,12,T,4,,145
2012-9-7,92,83,74,75,73,71,94,75,56,29.97,29.92,29.84,10,7,0,13,3,16,T,2,Fog,229
2012-9-8,91,81,70,73,71,66,93,75,57,29.91,29.85,29.79,10,10,6,20,6,25,T,3,Rain-Thunderstorm,305
2012-9-9,84,72,60,65,58,54,93,64,34,30.03,29.97,29.91,10,10,10,14,6,20,0.00,0,,339
2012-9-10,87,72,57,61,56,51,93,61,29,30.10,30.07,30.03,10,10,10,9,2,13,0.00,0,,3
2012-9-11,86,74,61,62,60,57,90,65,40,30.22,30.16,30.09,10,10,10,16,5,21,0.00,2,,94
2012-9-12,86,77,67,63,59,55,81,59,37,30.26,30.20,30.15,10,10,10,17,7,21,0.00,2,,95
2012-9-13,86,76,66,64,61,59,76,59,42,30.25,30.20,30.14,10,10,10,15,7,18,0.00,4,,80
2012-9-14,87,76,64,66,63,61,87,68,48,30.20,30.16,30.11,10,10,10,13,4,15,0.00,2,,52
2012-9-15,90,79,67,68,64,60,87,63,38,30.17,30.11,30.05,10,10,10,9,2,14,0.00,2,,100
2012-9-16,89,80,71,72,68,66,93,72,50,30.09,30.03,29.97,10,10,8,15,2,18,0.05,7,Rain,76
2012-9-17,86,78,69,74,70,66,97,81,65,30.01,29.89,29.76,10,8,1,16,7,23,0.20,4,Rain,133
2012-9-18,83,75,66,72,69,62,93,78,62,29.98,29.80,29.69,10,9,1,23,8,26,0.41,6,Rain,286
2012-9-19,81,69,57,61,54,49,93,63,33,30.10,30.04,29.98,10,10,10,10,4,14,0.00,0,,328
2012-9-20,85,70,54,61,56,48,93,63,33,30.10,30.06,30.01,10,10,10,9,1,13,0.00,0,,259
2012-9-21,87,72,57,64,60,55,93,65,37,30.08,30.03,29.97,10,9,2,7,2,13,0.00,0,,277
2012-9-22,88,75,61,66,64,60,93,68,43,30.09,30.04,30.00,10,9,3,13,4,16,0.00,0,,274
2012-9-23,89,73,57,63,56,48,93,61,28,30.17,30.13,30.09,10,10,2,15,3,21,0.00,0,,321
2012-9-24,82,67,52,55,46,38,89,55,20,30.22,30.16,30.11,10,10,7,13,3,22,0.00,0,,4
2012-9-25,86,68,50,58,52,46,89,58,27,30.18,30.14,30.10,10,10,10,9,2,13,0.00,0,,112
2012-9-26,90,75,59,65,61,55,90,67,43,30.18,30.14,30.09,10,10,10,12,2,17,0.00,0,,117
2012-9-27,91,78,64,69,64,62,93,67,41,30.19,30.12,30.05,10,10,6,9,2,13,0.00,2,,357
2012-9-28,91,79,66,69,66,62,93,68,43,30.11,30.05,29.98,10,10,5,8,1,14,0.00,1,,274
2012-9-29,86,77,68,71,68,66,90,73,55,30.00,29.95,29.89,10,9,5,7,2,21,T,3,,241
2012-9-30,75,72,69,72,69,66,97,92,87,29.88,29.80,29.68,10,6,1,16,6,28,1.04,8,Rain,86